McCallum, Mississippi
Current Conditions -  °F | °C
As of 12:53 PM on Saturday 20 Dec 2014 (Local Time) from KHBG Reporting Station
Overcast Overcast  
Wind Chill: 51°   Ceiling: 1300
Heat Index: 51°   Visibility: 10mi
Dew Point: 45°   Wind: 9mph
Humidity: 80%   Direction: 20°NNE
Pressure: 30.16"   Gusts: NA
Location:  31.1996°N, 89.2694°W
Report Text: KHBG 201853Z AUTO 02008KT 10SM OVC013 11/07 A3016 RMK AO2 SLP212 T01060072
Loading
Personal Weather Stations






























Interactive Weather Map New forecast layout! Learn more

10-Day Weather Forecast

Advertisements
Track Severe Weather on mobile